createdAt,value
2018-07-30T00:00:02.438Z,23.66
2018-07-30T00:01:02.426Z,23.64
2018-07-30T00:02:02.417Z,23.60
2018-07-30T00:03:02.457Z,23.59
2018-07-30T00:04:02.396Z,23.56
2018-07-30T00:05:02.692Z,23.66
2018-07-30T00:06:02.376Z,23.71
2018-07-30T00:07:02.371Z,23.64
2018-07-30T00:08:02.387Z,23.63
2018-07-30T00:09:02.396Z,23.71
2018-07-30T00:10:02.336Z,23.56
2018-07-30T00:11:02.325Z,23.66
2018-07-30T00:12:02.616Z,23.60
2018-07-30T00:13:02.308Z,23.55
2018-07-30T00:14:02.297Z,23.51
2018-07-30T00:15:02.338Z,23.54
2018-07-30T00:16:02.278Z,23.48
2018-07-30T00:17:02.275Z,23.51
2018-07-30T00:18:02.256Z,23.44
2018-07-30T00:19:02.547Z,23.46
2018-07-30T00:20:02.265Z,23.54
2018-07-30T00:21:02.276Z,23.51
2018-07-30T00:22:02.215Z,23.49
2018-07-30T00:23:02.207Z,23.45
2018-07-30T00:24:02.252Z,23.44
2018-07-30T00:25:02.186Z,23.37
2018-07-30T00:26:02.476Z,23.25
2018-07-30T00:27:02.216Z,23.23
2018-07-30T00:28:02.157Z,23.33
2018-07-30T00:29:02.144Z,23.18
2018-07-30T00:30:02.186Z,23.21
2018-07-30T00:31:02.130Z,23.18
2018-07-30T00:32:02.416Z,23.18
2018-07-30T00:33:02.161Z,23.11
2018-07-30T00:34:02.095Z,23.13
2018-07-30T00:35:02.094Z,23.15
2018-07-30T00:36:02.086Z,23.13
2018-07-30T00:37:02.066Z,23.07
2018-07-30T00:38:02.356Z,23.14
2018-07-30T00:39:02.096Z,23.17
2018-07-30T00:40:02.038Z,23.07
2018-07-30T00:41:02.025Z,23.13
2018-07-30T00:42:02.013Z,23.15
2018-07-30T00:43:02.008Z,23.06
2018-07-30T00:44:02.302Z,23.13
2018-07-30T00:45:02.035Z,23.11
2018-07-30T00:46:01.973Z,23.17
2018-07-30T00:47:01.962Z,23.13
2018-07-30T00:48:01.954Z,23.11
2018-07-30T00:49:01.953Z,23.11
2018-07-30T00:50:02.232Z,23.13
2018-07-30T00:51:01.975Z,23.13
2018-07-30T00:52:01.911Z,23.22
2018-07-30T00:53:01.901Z,23.13
2018-07-30T00:54:01.893Z,23.11
2018-07-30T00:55:01.922Z,23.08
2018-07-30T00:56:01.870Z,23.10
2018-07-30T00:57:01.909Z,23.10
2018-07-30T00:58:01.849Z,23.04
2018-07-30T00:59:01.841Z,22.96
2018-07-30T01:00:01.839Z,23.14
2018-07-30T01:01:01.820Z,23.15
2018-07-30T01:02:02.108Z,23.13
2018-07-30T01:03:01.850Z,23.06
2018-07-30T01:04:01.789Z,23.14
2018-07-30T01:05:01.780Z,23.17
2018-07-30T01:06:01.771Z,23.08
2018-07-30T01:07:01.758Z,23.06
2018-07-30T01:08:02.048Z,23.10
2018-07-30T01:09:01.788Z,23.04
2018-07-30T01:10:01.727Z,23.01
2018-07-30T01:11:01.718Z,23.01
2018-07-30T01:12:01.712Z,23.04
2018-07-30T01:13:01.697Z,23.10
2018-07-30T01:14:01.686Z,23.01
2018-07-30T01:15:01.975Z,23.18
2018-07-30T01:16:01.665Z,23.13
2018-07-30T01:17:01.654Z,23.13
2018-07-30T01:18:01.645Z,23.21
2018-07-30T01:19:01.633Z,23.21
2018-07-30T01:20:01.625Z,23.21
2018-07-30T01:21:01.664Z,23.04
2018-07-30T01:22:01.903Z,23.11
2018-07-30T01:23:01.592Z,22.99
2018-07-30T01:24:01.584Z,22.99
2018-07-30T01:25:01.572Z,22.96
2018-07-30T01:26:01.563Z,22.86
2018-07-30T01:27:01.603Z,22.88
2018-07-30T01:28:01.540Z,22.76
2018-07-30T01:29:01.832Z,22.74
2018-07-30T01:30:01.522Z,22.55
2018-07-30T01:31:01.512Z,22.58
2018-07-30T01:32:01.500Z,22.43
2018-07-30T01:33:01.540Z,22.46
2018-07-30T01:34:01.479Z,22.38
2018-07-30T01:35:01.469Z,22.33
2018-07-30T01:36:01.759Z,22.27
2018-07-30T01:37:01.450Z,22.22
2018-07-30T01:38:01.440Z,22.13
2018-07-30T01:39:01.475Z,22.15
2018-07-30T01:40:01.416Z,22.09
2018-07-30T01:41:01.407Z,21.97
2018-07-30T01:42:01.395Z,22.03
2018-07-30T01:43:01.687Z,21.93
2018-07-30T01:44:01.376Z,21.96
2018-07-30T01:45:01.415Z,21.94
2018-07-30T01:46:01.351Z,21.84
2018-07-30T01:47:01.342Z,21.90
2018-07-30T01:48:01.337Z,21.85
2018-07-30T01:49:01.322Z,21.80
2018-07-30T01:50:01.613Z,21.93
2018-07-30T01:51:01.350Z,21.91
2018-07-30T01:52:01.291Z,21.82
2018-07-30T01:53:01.281Z,21.82
2018-07-30T01:54:01.268Z,21.84
2018-07-30T01:55:01.260Z,21.85
2018-07-30T01:56:01.252Z,21.81
2018-07-30T01:57:01.538Z,21.90
2018-07-30T01:58:01.225Z,21.85
2018-07-30T01:59:01.214Z,21.94
2018-07-30T02:00:01.207Z,21.93
2018-07-30T02:01:01.196Z,21.94
2018-07-30T02:02:01.185Z,21.91
2018-07-30T02:03:01.222Z,21.88
2018-07-30T02:04:01.466Z,21.93
2018-07-30T02:05:01.160Z,21.84
2018-07-30T02:06:01.142Z,21.82
2018-07-30T02:07:01.129Z,21.84
2018-07-30T02:08:01.120Z,21.82
2018-07-30T02:09:01.410Z,21.85
2018-07-30T02:10:01.397Z,21.82
2018-07-30T02:11:01.106Z,21.81
2018-07-30T02:12:01.076Z,21.81
2018-07-30T02:13:01.066Z,21.81
2018-07-30T02:14:01.057Z,21.85
2018-07-30T02:15:01.096Z,21.88
2018-07-30T02:16:01.333Z,21.82
2018-07-30T02:17:01.024Z,21.81
2018-07-30T02:18:01.011Z,21.94
2018-07-30T02:19:01.001Z,21.94
2018-07-30T02:20:00.991Z,21.94
2018-07-30T02:21:01.033Z,21.94
2018-07-30T02:22:01.269Z,21.91
2018-07-30T02:23:00.957Z,21.91
2018-07-30T02:24:00.948Z,21.98
2018-07-30T02:25:00.936Z,21.97
2018-07-30T02:26:00.925Z,22.06
2018-07-30T02:27:00.964Z,22.03
2018-07-30T02:28:01.206Z,22.13
2018-07-30T02:29:00.895Z,22.09
2018-07-30T02:30:00.885Z,22.04
2018-07-30T02:31:00.870Z,21.98
2018-07-30T02:32:00.861Z,22.03
2018-07-30T02:33:00.900Z,22.03
2018-07-30T02:34:01.141Z,21.93
2018-07-30T02:35:00.828Z,21.90
2018-07-30T02:36:00.819Z,21.94
2018-07-30T02:37:00.808Z,21.90
2018-07-30T02:38:00.796Z,21.80
2018-07-30T02:39:00.837Z,21.84
2018-07-30T02:40:01.074Z,21.82
2018-07-30T02:41:00.766Z,21.78
2018-07-30T02:42:00.753Z,21.88
2018-07-30T02:43:00.755Z,21.81
2018-07-30T02:44:00.734Z,21.80
2018-07-30T02:45:00.775Z,21.93
2018-07-30T02:46:01.013Z,21.82
2018-07-30T02:47:00.700Z,21.82
2018-07-30T02:48:00.687Z,21.90
2018-07-30T02:49:00.677Z,21.80
2018-07-30T02:50:00.667Z,21.84
2018-07-30T02:51:00.707Z,21.74
2018-07-30T02:52:00.645Z,21.77
2018-07-30T02:53:00.936Z,21.69
2018-07-30T02:54:00.625Z,21.77
2018-07-30T02:55:00.614Z,21.63
2018-07-30T02:56:00.604Z,21.73
2018-07-30T02:57:00.642Z,21.67
2018-07-30T02:58:00.583Z,21.63
2018-07-30T02:59:00.570Z,21.66
2018-07-30T03:00:00.857Z,21.69
2018-07-30T03:01:00.550Z,21.55
2018-07-30T03:02:00.537Z,21.53
2018-07-30T03:03:00.580Z,21.56
2018-07-30T03:04:00.546Z,21.58
2018-07-30T03:05:00.506Z,21.50
2018-07-30T03:06:00.493Z,21.45
2018-07-30T03:07:00.782Z,21.45
2018-07-30T03:08:00.474Z,21.34
2018-07-30T03:09:00.512Z,21.40
2018-07-30T03:10:00.448Z,21.23
2018-07-30T03:11:00.441Z,21.22
2018-07-30T03:12:00.428Z,21.22
2018-07-30T03:13:00.416Z,21.11
2018-07-30T03:14:00.707Z,21.10
2018-07-30T03:15:00.445Z,21.07
2018-07-30T03:16:00.384Z,20.90
2018-07-30T03:17:00.373Z,20.89
2018-07-30T03:18:00.361Z,20.89
2018-07-30T03:19:00.350Z,20.73
2018-07-30T03:20:00.341Z,20.79
2018-07-30T03:21:00.630Z,20.79
2018-07-30T03:22:00.318Z,20.70
2018-07-30T03:23:00.304Z,20.71
2018-07-30T03:24:00.296Z,20.68
2018-07-30T03:25:00.285Z,20.67
2018-07-30T03:26:00.273Z,20.63
2018-07-30T03:27:00.313Z,20.64
2018-07-30T03:28:00.551Z,20.63
2018-07-30T03:29:00.240Z,20.50
2018-07-30T03:30:00.228Z,20.64
2018-07-30T03:31:00.218Z,20.63
2018-07-30T03:32:00.207Z,20.60
2018-07-30T03:33:00.246Z,20.64
2018-07-30T03:34:00.183Z,20.58
2018-07-30T03:35:00.474Z,20.64
2018-07-30T03:36:00.161Z,20.55
2018-07-30T03:37:00.149Z,20.50
2018-07-30T03:38:00.140Z,20.52
2018-07-30T03:39:00.187Z,20.52
2018-07-30T03:40:00.124Z,20.56
2018-07-30T03:41:00.407Z,20.55
2018-07-30T03:42:00.094Z,20.53
2018-07-30T03:43:00.084Z,20.55
2018-07-30T03:44:00.071Z,20.55
2018-07-30T03:45:00.113Z,20.55
2018-07-30T03:46:00.050Z,20.50
2018-07-30T03:47:00.339Z,20.46
2018-07-30T03:48:00.075Z,20.44
2018-07-30T03:49:00.015Z,20.39
2018-07-30T03:50:00.002Z,20.36
2018-07-30T03:51:00.043Z,20.34
2018-07-30T03:51:59.981Z,20.36
2018-07-30T03:53:00.270Z,20.39
2018-07-30T03:53:59.959Z,20.39
2018-07-30T03:54:59.946Z,20.36
2018-07-30T03:55:59.934Z,20.37
2018-07-30T03:56:59.975Z,20.36
2018-07-30T03:57:59.964Z,20.48
2018-07-30T03:59:00.201Z,20.42
2018-07-30T03:59:59.952Z,20.49
2018-07-30T04:00:59.879Z,20.52
2018-07-30T04:01:59.867Z,20.49
2018-07-30T04:02:59.913Z,20.36
2018-07-30T04:03:59.848Z,20.33
2018-07-30T04:05:00.133Z,20.25
2018-07-30T04:05:59.824Z,20.17
2018-07-30T04:06:59.808Z,20.14
2018-07-30T04:07:59.861Z,20.11
2018-07-30T04:08:59.838Z,20.12
2018-07-30T04:09:59.776Z,20.04
2018-07-30T04:11:00.064Z,19.96
2018-07-30T04:11:59.751Z,19.97
2018-07-30T04:12:59.741Z,20.00
2018-07-30T04:13:59.728Z,20.05
2018-07-30T04:14:59.767Z,19.99
2018-07-30T04:15:59.709Z,19.93
2018-07-30T04:16:59.996Z,19.96
2018-07-30T04:17:59.684Z,19.93
2018-07-30T04:18:59.672Z,19.96
2018-07-30T04:19:59.661Z,19.93
2018-07-30T04:20:59.704Z,19.94
2018-07-30T04:21:59.640Z,19.94
2018-07-30T04:22:59.627Z,19.97
2018-07-30T04:23:59.914Z,19.94
2018-07-30T04:24:59.603Z,19.93
2018-07-30T04:25:59.598Z,19.86
2018-07-30T04:26:59.631Z,19.77
2018-07-30T04:27:59.568Z,19.78
2018-07-30T04:28:59.559Z,19.81
2018-07-30T04:29:59.546Z,19.84
2018-07-30T04:30:59.835Z,19.79
2018-07-30T04:31:59.523Z,19.94
2018-07-30T04:32:59.560Z,19.93
2018-07-30T04:33:59.497Z,19.97
2018-07-30T04:34:59.484Z,19.97
2018-07-30T04:35:59.476Z,20.04
2018-07-30T04:36:59.463Z,19.97
2018-07-30T04:37:59.753Z,20.07
2018-07-30T04:38:59.491Z,20.04
2018-07-30T04:39:59.429Z,20.07
2018-07-30T04:40:59.417Z,20.07
2018-07-30T04:41:59.404Z,20.07
2018-07-30T04:42:59.428Z,20.14
2018-07-30T04:43:59.381Z,20.14
2018-07-30T04:44:59.672Z,20.05
2018-07-30T04:45:59.357Z,20.04
2018-07-30T04:46:59.346Z,20.18
2018-07-30T04:47:59.337Z,20.14
2018-07-30T04:48:59.324Z,20.18
2018-07-30T04:49:59.312Z,20.15
2018-07-30T04:50:59.351Z,20.14
2018-07-30T04:51:59.590Z,20.23
2018-07-30T04:52:59.279Z,20.26
2018-07-30T04:53:59.268Z,20.26
2018-07-30T04:54:59.256Z,20.29
2018-07-30T04:55:59.243Z,20.34
2018-07-30T04:56:59.373Z,20.42
2018-07-30T04:57:59.221Z,20.33
2018-07-30T04:58:59.509Z,20.34
2018-07-30T04:59:59.199Z,20.42
2018-07-30T05:00:59.187Z,20.52
2018-07-30T05:01:59.177Z,20.56
2018-07-30T05:02:59.214Z,20.60
2018-07-30T05:03:59.155Z,20.65
2018-07-30T05:04:59.142Z,20.70
2018-07-30T05:05:59.428Z,20.74
2018-07-30T05:06:59.121Z,20.79
2018-07-30T05:07:59.107Z,20.73
2018-07-30T05:08:59.147Z,20.80
2018-07-30T05:09:59.083Z,20.88
2018-07-30T05:10:59.073Z,21.03
2018-07-30T05:11:59.363Z,21.07
2018-07-30T05:12:59.052Z,21.16
2018-07-30T05:13:59.041Z,21.20
2018-07-30T05:14:59.079Z,21.16
2018-07-30T05:15:59.021Z,21.22
2018-07-30T05:16:59.026Z,21.38
2018-07-30T05:17:59.293Z,21.47
2018-07-30T05:18:58.991Z,21.45
2018-07-30T05:19:58.998Z,21.47
2018-07-30T05:20:59.030Z,21.62
2018-07-30T05:21:58.952Z,21.77
2018-07-30T05:22:58.942Z,21.75
2018-07-30T05:23:59.235Z,21.81
2018-07-30T05:24:58.927Z,21.91
2018-07-30T05:25:58.915Z,22.04
2018-07-30T05:26:58.959Z,22.15
2018-07-30T05:27:58.887Z,22.19
2018-07-30T05:28:58.876Z,22.28
2018-07-30T05:29:59.164Z,22.30
2018-07-30T05:30:58.857Z,22.30
2018-07-30T05:31:58.881Z,22.41
2018-07-30T05:32:58.886Z,22.53
2018-07-30T05:33:58.826Z,22.55
2018-07-30T05:34:58.812Z,22.62
2018-07-30T05:35:59.104Z,22.68
2018-07-30T05:36:58.797Z,22.95
2018-07-30T05:37:58.783Z,23.17
2018-07-30T05:38:58.824Z,23.22
2018-07-30T05:39:58.765Z,23.33
2018-07-30T05:40:58.752Z,23.34
2018-07-30T05:41:59.041Z,23.37
2018-07-30T05:42:58.730Z,23.44
2018-07-30T05:43:58.722Z,23.51
2018-07-30T05:44:58.767Z,23.66
2018-07-30T05:45:58.706Z,23.69
2018-07-30T05:46:58.734Z,23.82
2018-07-30T05:47:58.984Z,24.00
2018-07-30T05:48:58.667Z,24.16
2018-07-30T05:49:58.678Z,24.37
2018-07-30T05:50:58.701Z,24.38
2018-07-30T05:51:58.637Z,24.47
2018-07-30T05:52:58.630Z,24.58
2018-07-30T05:53:58.918Z,24.71
2018-07-30T05:54:58.610Z,24.62
2018-07-30T05:55:58.597Z,24.74
2018-07-30T05:56:58.640Z,24.84
2018-07-30T05:57:58.590Z,24.90
2018-07-30T05:58:58.570Z,24.94
2018-07-30T05:59:58.571Z,25.08
2018-07-30T06:00:58.907Z,25.15
2018-07-30T06:01:58.603Z,25.12
2018-07-30T06:02:58.581Z,25.14
2018-07-30T06:03:58.524Z,25.21
2018-07-30T06:04:58.516Z,25.23
2018-07-30T06:05:58.501Z,25.28
2018-07-30T06:06:58.795Z,25.28
2018-07-30T06:07:58.486Z,25.33
2018-07-30T06:08:58.534Z,25.40
2018-07-30T06:09:58.466Z,25.38
2018-07-30T06:10:58.457Z,25.43
2018-07-30T06:11:58.447Z,25.43
2018-07-30T06:12:58.442Z,25.46
2018-07-30T06:13:58.737Z,25.51
2018-07-30T06:14:58.473Z,25.41
2018-07-30T06:15:58.414Z,25.55
2018-07-30T06:16:58.407Z,25.58
2018-07-30T06:17:58.394Z,25.70
2018-07-30T06:18:58.409Z,25.58
2018-07-30T06:19:58.698Z,25.63
2018-07-30T06:20:58.431Z,25.58
2018-07-30T06:21:58.358Z,25.59
2018-07-30T06:22:58.350Z,25.73
2018-07-30T06:23:58.344Z,25.77
2018-07-30T06:24:58.333Z,25.82
2018-07-30T06:25:58.628Z,25.88
2018-07-30T06:26:58.366Z,25.90
2018-07-30T06:27:58.308Z,25.92
2018-07-30T06:28:58.302Z,25.95
2018-07-30T06:29:58.298Z,25.93
2018-07-30T06:30:58.284Z,25.85
2018-07-30T06:31:58.358Z,26.01
2018-07-30T06:32:58.568Z,25.98
2018-07-30T06:33:58.257Z,26.05
2018-07-30T06:34:58.250Z,26.10
2018-07-30T06:35:58.243Z,26.31
2018-07-30T06:36:58.232Z,26.41
2018-07-30T06:37:58.223Z,26.38
2018-07-30T06:38:58.515Z,26.45
2018-07-30T06:39:58.205Z,26.51
2018-07-30T06:40:58.207Z,26.51
2018-07-30T06:41:58.203Z,26.52
2018-07-30T06:42:58.182Z,26.58
2018-07-30T06:43:58.173Z,26.65
2018-07-30T06:44:58.468Z,26.70
2018-07-30T06:45:58.198Z,26.79
2018-07-30T06:46:58.151Z,26.78
2018-07-30T06:47:58.180Z,26.82
2018-07-30T06:48:58.137Z,26.90
2018-07-30T06:49:58.127Z,26.95
2018-07-30T06:50:58.171Z,27.01
2018-07-30T06:51:58.117Z,26.95
2018-07-30T06:52:58.128Z,26.97
2018-07-30T06:53:58.094Z,26.98
2018-07-30T06:54:58.093Z,26.97
2018-07-30T06:55:58.081Z,26.97
2018-07-30T06:56:58.374Z,26.94
2018-07-30T06:57:58.075Z,26.86
2018-07-30T06:58:58.060Z,26.97
2018-07-30T06:59:58.082Z,27.07
2018-07-30T07:00:58.113Z,27.05
2018-07-30T07:01:58.138Z,26.95
2018-07-30T07:02:58.329Z,26.93
2018-07-30T07:03:58.023Z,27.04
2018-07-30T07:04:58.014Z,27.00
2018-07-30T07:05:58.008Z,27.13
2018-07-30T07:06:58.002Z,27.12
2018-07-30T07:07:57.994Z,27.08
2018-07-30T07:08:58.064Z,27.10
2018-07-30T07:09:57.979Z,27.10
2018-07-30T07:10:58.082Z,27.19
2018-07-30T07:11:58.007Z,27.15
2018-07-30T07:12:57.955Z,27.16
2018-07-30T07:13:58.006Z,27.15
2018-07-30T07:14:58.325Z,27.23
2018-07-30T07:15:57.980Z,27.19
2018-07-30T07:16:58.117Z,27.20
2018-07-30T07:17:57.919Z,27.19
2018-07-30T07:18:57.950Z,27.15
2018-07-30T07:19:57.907Z,27.16
2018-07-30T07:20:57.952Z,27.16
2018-07-30T07:21:57.976Z,27.20
2018-07-30T07:22:57.884Z,27.16
2018-07-30T07:23:57.877Z,27.17
2018-07-30T07:24:57.878Z,27.17
2018-07-30T07:25:57.861Z,27.23
2018-07-30T07:26:57.960Z,27.16
2018-07-30T07:27:57.924Z,27.16
2018-07-30T07:28:57.843Z,27.30
2018-07-30T07:29:57.832Z,27.32
2018-07-30T07:30:57.830Z,27.26
2018-07-30T07:31:58.179Z,27.26
2018-07-30T07:32:57.867Z,27.34
2018-07-30T07:33:57.807Z,27.30
2018-07-30T07:34:57.852Z,27.42
2018-07-30T07:35:57.797Z,27.41
2018-07-30T07:36:57.806Z,27.42
2018-07-30T07:37:58.079Z,27.42
2018-07-30T07:38:57.823Z,27.44
2018-07-30T07:39:57.765Z,27.38
2018-07-30T07:40:57.756Z,27.35
2018-07-30T07:41:57.750Z,27.42
2018-07-30T07:42:57.800Z,27.44
2018-07-30T07:43:58.037Z,27.49
2018-07-30T07:44:57.837Z,27.45
2018-07-30T07:45:57.736Z,27.44
2018-07-30T07:46:57.715Z,27.41
2018-07-30T07:47:57.708Z,27.50
2018-07-30T07:48:57.701Z,27.47
2018-07-30T07:49:58.033Z,27.49
2018-07-30T07:50:57.963Z,27.57
2018-07-30T07:51:57.680Z,27.63
2018-07-30T07:52:57.674Z,27.54
2018-07-30T07:53:57.666Z,27.53
2018-07-30T07:54:57.661Z,27.58
2018-07-30T07:55:57.653Z,27.57
2018-07-30T07:56:57.696Z,27.63
2018-07-30T07:57:57.657Z,27.79
2018-07-30T07:58:57.636Z,27.79
2018-07-30T07:59:57.632Z,27.78
2018-07-30T08:00:57.617Z,27.70
2018-07-30T08:01:57.612Z,27.76
2018-07-30T08:02:57.916Z,27.82
2018-07-30T08:03:57.608Z,27.90
2018-07-30T08:04:57.590Z,27.95
2018-07-30T08:05:57.585Z,27.95
2018-07-30T08:06:57.584Z,27.98
2018-07-30T08:07:57.569Z,28.03
2018-07-30T08:08:57.618Z,28.05
2018-07-30T08:09:58.049Z,28.20
2018-07-30T08:10:57.631Z,28.38
2018-07-30T08:11:57.545Z,28.50
2018-07-30T08:12:57.538Z,28.52
2018-07-30T08:13:57.534Z,28.57
2018-07-30T08:14:57.585Z,28.50
2018-07-30T08:15:57.520Z,28.47
2018-07-30T08:16:57.815Z,28.56
2018-07-30T08:17:57.506Z,28.53
2018-07-30T08:18:57.501Z,28.61
2018-07-30T08:19:57.498Z,28.53
2018-07-30T08:20:57.538Z,28.53
2018-07-30T08:21:57.493Z,28.56
2018-07-30T08:22:57.775Z,28.53
2018-07-30T08:23:57.471Z,28.66
2018-07-30T08:24:57.462Z,28.61
2018-07-30T08:25:57.458Z,28.54
2018-07-30T08:26:57.501Z,28.62
2018-07-30T08:27:57.447Z,28.69
2018-07-30T08:28:57.748Z,28.81
2018-07-30T08:29:57.432Z,28.64
2018-07-30T08:30:57.428Z,28.66
2018-07-30T08:31:57.422Z,28.80
2018-07-30T08:32:57.501Z,29.02
2018-07-30T08:33:57.411Z,28.93
2018-07-30T08:34:57.705Z,28.79
2018-07-30T08:35:57.404Z,28.81
2018-07-30T08:36:57.392Z,28.84
2018-07-30T08:37:57.419Z,28.80
2018-07-30T08:38:57.433Z,28.91
2018-07-30T08:39:57.425Z,29.02
2018-07-30T08:40:57.673Z,28.93
2018-07-30T08:41:57.367Z,28.93
2018-07-30T08:42:57.373Z,28.89
2018-07-30T08:43:57.356Z,29.00
2018-07-30T08:44:57.403Z,29.36
2018-07-30T08:45:57.344Z,29.58
2018-07-30T08:46:57.642Z,29.77
2018-07-30T08:47:57.350Z,29.91
2018-07-30T08:48:57.478Z,30.00
2018-07-30T08:49:57.324Z,30.29
2018-07-30T08:50:57.374Z,30.56
2018-07-30T08:51:57.341Z,30.85
2018-07-30T08:52:57.613Z,30.96
2018-07-30T08:53:57.303Z,31.15
2018-07-30T08:54:57.299Z,31.45
2018-07-30T08:55:57.296Z,31.54
2018-07-30T08:56:57.366Z,31.59
2018-07-30T08:57:57.308Z,31.79
2018-07-30T08:58:57.283Z,31.64
2018-07-30T08:59:57.579Z,31.78
2018-07-30T09:00:57.275Z,31.81
2018-07-30T09:01:57.272Z,31.81
2018-07-30T09:02:57.317Z,31.89
2018-07-30T09:03:57.269Z,32.06
2018-07-30T09:04:57.266Z,32.21
2018-07-30T09:05:57.558Z,32.50
2018-07-30T09:06:57.254Z,32.60
2018-07-30T09:07:57.279Z,32.55
2018-07-30T09:08:57.298Z,32.80
2018-07-30T09:09:57.245Z,32.79
2018-07-30T09:10:57.266Z,32.85
2018-07-30T09:11:57.547Z,32.77
2018-07-30T09:12:57.338Z,32.88
2018-07-30T09:13:57.236Z,32.95
2018-07-30T09:14:57.283Z,33.14
2018-07-30T09:15:57.237Z,33.09
2018-07-30T09:16:57.248Z,32.70
2018-07-30T09:17:57.529Z,32.58
2018-07-30T09:18:57.225Z,32.92
2018-07-30T09:19:57.240Z,33.07
2018-07-30T09:20:57.276Z,33.03
2018-07-30T09:21:57.229Z,33.07
2018-07-30T09:22:57.223Z,33.16
2018-07-30T09:23:57.524Z,32.97
2018-07-30T09:24:57.219Z,32.97
2018-07-30T09:25:57.227Z,32.95
2018-07-30T09:26:57.269Z,33.09
2018-07-30T09:27:57.218Z,33.16
2018-07-30T09:28:57.216Z,33.36
2018-07-30T09:29:57.216Z,33.55
2018-07-30T09:30:57.516Z,33.78
2018-07-30T09:31:57.217Z,33.71
2018-07-30T09:32:57.493Z,33.44
2018-07-30T09:33:57.228Z,33.60
2018-07-30T09:34:57.213Z,33.84
2018-07-30T09:35:57.214Z,33.95
2018-07-30T09:36:57.693Z,34.20
2018-07-30T09:37:57.221Z,34.32
2018-07-30T09:38:57.263Z,34.38
2018-07-30T09:39:57.215Z,34.41
2018-07-30T09:40:57.218Z,34.52
2018-07-30T09:41:57.277Z,34.66
2018-07-30T09:42:57.219Z,34.64
2018-07-30T09:43:57.520Z,34.82
2018-07-30T09:44:57.360Z,34.92
2018-07-30T09:45:57.218Z,34.79
2018-07-30T09:46:57.234Z,34.82
2018-07-30T09:47:57.222Z,35.19
2018-07-30T09:48:57.224Z,35.21
2018-07-30T09:49:57.536Z,35.39
2018-07-30T09:50:57.279Z,35.53
2018-07-30T09:51:57.232Z,35.39
2018-07-30T09:52:57.232Z,35.63
2018-07-30T09:53:57.230Z,35.60
2018-07-30T09:54:57.237Z,35.19
2018-07-30T09:55:57.547Z,35.01
2018-07-30T09:56:57.290Z,35.12
2018-07-30T09:58:57.245Z,35.90
2018-07-30T09:59:57.245Z,35.97
2018-07-30T10:00:57.250Z,36.07
2018-07-30T10:01:57.248Z,35.31
2018-07-30T10:02:57.555Z,35.36
2018-07-30T10:03:57.255Z,35.24
2018-07-30T10:04:57.263Z,34.92
2018-07-30T10:05:57.262Z,34.47
2018-07-30T10:06:57.261Z,34.20
2018-07-30T10:07:57.263Z,33.86
2018-07-30T10:08:57.567Z,33.82
2018-07-30T10:09:57.267Z,33.64
2018-07-30T10:10:57.267Z,33.60
2018-07-30T10:11:57.278Z,33.48
2018-07-30T10:12:57.272Z,33.39
2018-07-30T10:13:57.279Z,33.51
2018-07-30T10:14:57.602Z,33.51
2018-07-30T10:15:57.281Z,33.74
2018-07-30T10:16:57.279Z,33.69
2018-07-30T10:17:57.317Z,33.69
2018-07-30T10:18:57.278Z,33.62
2018-07-30T10:19:57.294Z,33.70
2018-07-30T10:20:57.582Z,33.91
2018-07-30T10:21:57.287Z,34.10
2018-07-30T10:22:57.284Z,34.10
2018-07-30T10:23:57.297Z,34.30
2018-07-30T10:24:57.286Z,34.04
2018-07-30T10:25:57.287Z,34.26
2018-07-30T10:26:57.588Z,34.26
2018-07-30T10:27:57.291Z,34.25
2018-07-30T10:28:57.287Z,34.56
2018-07-30T10:29:57.294Z,34.72
2018-07-30T10:30:57.291Z,34.67
2018-07-30T10:31:57.294Z,34.60
2018-07-30T10:32:57.646Z,34.47
2018-07-30T10:33:57.294Z,34.15
2018-07-30T10:34:57.296Z,34.07
2018-07-30T10:35:57.298Z,33.82
2018-07-30T10:36:57.296Z,33.49
2018-07-30T10:37:57.373Z,33.60
2018-07-30T10:38:57.604Z,33.54
2018-07-30T10:39:57.381Z,33.62
2018-07-30T10:40:57.303Z,33.42
2018-07-30T10:41:57.300Z,33.47
2018-07-30T10:42:57.302Z,33.74
2018-07-30T10:43:57.304Z,34.18
2018-07-30T10:44:57.603Z,34.63
2018-07-30T10:45:57.303Z,34.67
2018-07-30T10:46:57.349Z,34.47
2018-07-30T10:47:57.308Z,34.41
2018-07-30T10:48:57.307Z,34.41
2018-07-30T10:49:57.306Z,34.83
2018-07-30T10:50:57.609Z,35.36
2018-07-30T10:51:57.308Z,35.36
2018-07-30T10:52:57.310Z,35.34
2018-07-30T10:53:57.310Z,35.29
2018-07-30T10:54:57.313Z,35.32
2018-07-30T10:55:57.313Z,35.34
2018-07-30T10:56:57.662Z,35.31
2018-07-30T10:57:57.318Z,34.83
2018-07-30T10:58:57.317Z,34.66
2018-07-30T10:59:57.322Z,34.90
2018-07-30T11:01:03.649Z,35.23
2018-07-30T11:01:57.324Z,35.69
2018-07-30T11:02:57.375Z,36.04
2018-07-30T11:03:57.626Z,36.54
2018-07-30T11:04:57.335Z,36.78
2018-07-30T11:05:57.328Z,36.64
2018-07-30T11:06:57.331Z,36.88
2018-07-30T11:07:57.332Z,37.17
2018-07-30T11:08:57.386Z,37.35
2018-07-30T11:09:57.338Z,37.34
2018-07-30T11:10:57.643Z,37.60
2018-07-30T11:11:57.345Z,37.74
2018-07-30T11:12:57.348Z,37.99
2018-07-30T11:13:57.351Z,37.95
2018-07-30T11:14:57.403Z,37.94
2018-07-30T11:15:57.357Z,38.17
2018-07-30T11:16:57.663Z,38.02
2018-07-30T11:17:57.364Z,37.60
2018-07-30T11:18:57.369Z,37.73
2018-07-30T11:19:57.372Z,37.70
2018-07-30T11:20:57.467Z,37.85
2018-07-30T11:21:57.383Z,37.42
2018-07-30T11:22:57.692Z,37.26
2018-07-30T11:23:57.392Z,37.12
2018-07-30T11:24:57.397Z,37.23
2018-07-30T11:25:57.401Z,37.55
2018-07-30T11:26:57.457Z,37.79
2018-07-30T11:27:57.513Z,38.26
2018-07-30T11:28:57.719Z,38.57
2018-07-30T11:29:57.448Z,38.73
2018-07-30T11:30:57.426Z,37.72
2018-07-30T11:31:57.434Z,37.03
2018-07-30T11:32:57.488Z,37.23
2018-07-30T11:33:57.464Z,37.74
2018-07-30T11:34:57.749Z,37.77
2018-07-30T11:35:57.452Z,37.82
2018-07-30T11:36:57.481Z,37.98
2018-07-30T11:37:57.465Z,37.77
2018-07-30T11:38:57.529Z,37.73
2018-07-30T11:39:57.478Z,37.67
2018-07-30T11:40:57.781Z,37.69
2018-07-30T11:41:57.485Z,37.03
2018-07-30T11:42:57.521Z,36.60
2018-07-30T11:43:57.523Z,35.97
2018-07-30T11:44:57.551Z,35.44
2018-07-30T11:45:57.516Z,35.04
2018-07-30T11:46:57.807Z,34.87
2018-07-30T11:47:57.512Z,34.62
2018-07-30T11:48:57.543Z,34.19
2018-07-30T11:49:57.520Z,33.64
2018-07-30T11:50:57.573Z,33.17
2018-07-30T11:51:57.532Z,33.01
2018-07-30T11:52:57.827Z,32.79
2018-07-30T11:53:57.545Z,32.92
2018-07-30T11:54:57.530Z,33.06
2018-07-30T11:55:57.534Z,33.24
2018-07-30T11:56:57.615Z,33.16
2018-07-30T11:57:57.536Z,33.16
2018-07-30T11:58:57.840Z,33.19
2018-07-30T11:59:57.544Z,33.22
2018-07-30T12:00:57.582Z,33.24
2018-07-30T12:01:57.544Z,33.13
2018-07-30T12:02:57.591Z,33.14
2018-07-30T12:03:57.544Z,33.10
2018-07-30T12:04:57.842Z,33.07
2018-07-30T12:05:57.539Z,33.12
2018-07-30T12:06:57.541Z,33.09
2018-07-30T12:07:57.539Z,33.07
2018-07-30T12:08:57.591Z,33.07
2018-07-30T12:09:57.596Z,33.12
2018-07-30T12:10:57.540Z,33.07
2018-07-30T12:11:57.842Z,33.14
2018-07-30T12:12:57.537Z,33.06
2018-07-30T12:13:57.548Z,33.03
2018-07-30T12:14:57.591Z,33.06
2018-07-30T12:15:57.535Z,32.95
2018-07-30T12:16:57.534Z,32.97
2018-07-30T12:17:57.571Z,33.45
2018-07-30T12:18:57.832Z,34.03
2018-07-30T12:19:57.551Z,33.86
2018-07-30T12:20:57.580Z,33.71
2018-07-30T12:21:57.530Z,34.11
2018-07-30T12:22:57.528Z,35.28
2018-07-30T12:23:57.545Z,35.75
2018-07-30T12:24:57.826Z,35.26
2018-07-30T12:25:57.523Z,35.04
2018-07-30T12:26:57.598Z,35.75
2018-07-30T12:27:57.526Z,36.60
2018-07-30T12:28:57.525Z,37.13
2018-07-30T12:29:57.521Z,37.58
2018-07-30T12:30:57.820Z,37.89
2018-07-30T12:31:57.531Z,38.37
2018-07-30T12:32:57.578Z,38.63
2018-07-30T12:33:57.688Z,38.63
2018-07-30T12:34:57.523Z,38.70
2018-07-30T12:35:57.520Z,38.82
2018-07-30T12:36:57.822Z,39.24
2018-07-30T12:37:57.536Z,39.36
2018-07-30T12:38:57.581Z,39.43
2018-07-30T12:39:57.526Z,39.46
2018-07-30T12:40:57.529Z,39.62
2018-07-30T12:41:57.596Z,39.67
2018-07-30T12:42:57.834Z,39.92
2018-07-30T12:43:57.544Z,39.96
2018-07-30T12:44:57.650Z,39.91
2018-07-30T12:45:57.541Z,38.30
2018-07-30T12:46:57.546Z,37.17
2018-07-30T12:47:57.567Z,36.33
2018-07-30T12:48:57.571Z,35.85
2018-07-30T12:49:57.853Z,36.81
2018-07-30T12:50:57.613Z,37.60
2018-07-30T12:51:57.560Z,37.47
2018-07-30T12:52:57.586Z,38.18